Terminal Aerodrome Forecast
Issued by NWS

Home | Current Version | Previous Version | Text Only | Print | Product List | Glossary On
Versions: 1 2 3 4 5 6 7 8 9 10 11 12 13
790
FTUS45 KABQ 280528
TAFROW
TAF
KROW 280528Z 2806/2906 VRB04KT P6SM SCT150
     FM281700 13006KT P6SM SKC
     FM282200 15010KT P6SM FEW090
     FM290100 18008KT P6SM FEW090=

USA.gov is the U.S. government's official web portal to all federal, state and local government web resources and services.